sensor_id;sensor_type;location;lat;lon;timestamp;pressure;altitude;pressure_sealevel;temperature;humidity
46506;BME280;32220;49.808;9.968;2023-04-28T00:00:28;98806.22;;;12.80;47.93
46506;BME280;32220;49.808;9.968;2023-04-28T00:02:56;98800.91;;;12.80;48.21
46506;BME280;32220;49.808;9.968;2023-04-28T00:05:25;98800.91;;;12.80;48.30
46506;BME280;32220;49.808;9.968;2023-04-28T00:07:53;98764.38;;;12.71;49.13
46506;BME280;32220;49.808;9.968;2023-04-28T00:10:21;98779.44;;;12.83;49.63
46506;BME280;32220;49.808;9.968;2023-04-28T00:12:48;98780.28;;;12.83;49.21
46506;BME280;32220;49.808;9.968;2023-04-28T00:15:16;98773.16;;;12.84;49.67
46506;BME280;32220;49.808;9.968;2023-04-28T00:17:43;98766.16;;;12.83;49.15
46506;BME280;32220;49.808;9.968;2023-04-28T00:20:11;98775.94;;;12.82;49.41
46506;BME280;32220;49.808;9.968;2023-04-28T00:22:40;98774.34;;;12.80;49.26
46506;BME280;32220;49.808;9.968;2023-04-28T00:25:08;98743.44;;;12.66;49.39
46506;BME280;32220;49.808;9.968;2023-04-28T00:27:36;98763.91;;;12.77;49.42
46506;BME280;32220;49.808;9.968;2023-04-28T00:30:04;98735.81;;;12.62;49.80
46506;BME280;32220;49.808;9.968;2023-04-28T00:32:32;98762.91;;;12.67;49.66
46506;BME280;32220;49.808;9.968;2023-04-28T00:35:01;98748.22;;;12.61;49.95
46506;BME280;32220;49.808;9.968;2023-04-28T00:37:28;98747.63;;;12.57;49.77
46506;BME280;32220;49.808;9.968;2023-04-28T00:39:57;98750.50;;;12.54;49.87
46506;BME280;32220;49.808;9.968;2023-04-28T00:42:25;98753.38;;;12.51;49.69
46506;BME280;32220;49.808;9.968;2023-04-28T00:44:52;98745.50;;;12.50;49.64
46506;BME280;32220;49.808;9.968;2023-04-28T00:47:20;98743.81;;;12.49;49.64
46506;BME280;32220;49.808;9.968;2023-04-28T00:49:48;98739.34;;;12.49;49.38
46506;BME280;32220;49.808;9.968;2023-04-28T00:52:16;98738.50;;;12.49;49.89
46506;BME280;32220;49.808;9.968;2023-04-28T00:54:43;98729.41;;;12.40;50.00
46506;BME280;32220;49.808;9.968;2023-04-28T00:57:14;98731.63;;;12.46;50.23
46506;BME280;32220;49.808;9.968;2023-04-28T00:59:42;98739.59;;;12.46;50.23
46506;BME280;32220;49.808;9.968;2023-04-28T01:02:09;98734.28;;;12.46;49.94
46506;BME280;32220;49.808;9.968;2023-04-28T01:09:27;98717.72;;;12.43;50.52
46506;BME280;32220;49.808;9.968;2023-04-28T01:11:55;98713.25;;;12.43;50.30
46506;BME280;32220;49.808;9.968;2023-04-28T01:14:54;98706.13;;;12.44;51.09
46506;BME280;32220;49.808;9.968;2023-04-28T01:17:22;98713.97;;;12.45;50.90
46506;BME280;32220;49.808;9.968;2023-04-28T01:19:50;98713.03;;;12.46;50.97
46506;BME280;32220;49.808;9.968;2023-04-28T01:22:19;98720.25;;;12.44;50.92
46506;BME280;32220;49.808;9.968;2023-04-28T01:24:48;98720.03;;;12.47;50.62
46506;BME280;32220;49.808;9.968;2023-04-28T01:27:16;98716.44;;;12.48;50.88
46506;BME280;32220;49.808;9.968;2023-04-28T01:29:44;98698.53;;;12.50;51.88
46506;BME280;32220;49.808;9.968;2023-04-28T01:32:12;98700.25;;;12.51;52.13
46506;BME280;32220;49.808;9.968;2023-04-28T01:34:40;98696.63;;;12.52;51.64
46506;BME280;32220;49.808;9.968;2023-04-28T01:37:07;98690.34;;;12.53;51.86
46506;BME280;32220;49.808;9.968;2023-04-28T01:39:36;98695.69;;;12.53;51.50
46506;BME280;32220;49.808;9.968;2023-04-28T01:42:06;98691.09;;;12.55;51.97
46506;BME280;32220;49.808;9.968;2023-04-28T01:44:33;98680.69;;;12.52;52.67
46506;BME280;32220;49.808;9.968;2023-04-28T01:47:01;98673.94;;;12.48;53.41
46506;BME280;32220;49.808;9.968;2023-04-28T01:49:29;98676.69;;;12.47;53.29
46506;BME280;32220;49.808;9.968;2023-04-28T01:51:57;98667.97;;;12.45;53.50
46506;BME280;32220;49.808;9.968;2023-04-28T01:54:25;98667.25;;;12.43;53.51
46506;BME280;32220;49.808;9.968;2023-04-28T01:56:53;98662.16;;;12.40;53.28
46506;BME280;32220;49.808;9.968;2023-04-28T01:59:23;98671.94;;;12.39;52.99
46506;BME280;32220;49.808;9.968;2023-04-28T02:01:50;98673.63;;;12.40;52.49
46506;BME280;32220;49.808;9.968;2023-04-28T02:04:18;98670.00;;;12.41;52.31
46506;BME280;32220;49.808;9.968;2023-04-28T02:06:46;98664.69;;;12.41;52.43
46506;BME280;32220;49.808;9.968;2023-04-28T02:09:14;98666.41;;;12.42;52.95
46506;BME280;32220;49.808;9.968;2023-04-28T02:11:42;98669.06;;;12.42;52.39
46506;BME280;32220;49.808;9.968;2023-04-28T02:14:10;98670.75;;;12.43;52.44
46506;BME280;32220;49.808;9.968;2023-04-28T02:16:39;98667.03;;;12.46;52.03
46506;BME280;32220;49.808;9.968;2023-04-28T02:19:07;98654.59;;;12.46;51.88
46506;BME280;32220;49.808;9.968;2023-04-28T02:21:35;98655.44;;;12.47;51.83
46506;BME280;32220;49.808;9.968;2023-04-28T02:24:03;98652.69;;;12.48;52.11
46506;BME280;32220;49.808;9.968;2023-04-28T02:26:32;98654.59;;;12.46;52.61
46506;BME280;32220;49.808;9.968;2023-04-28T02:29:00;98643.66;;;12.38;52.84
46506;BME280;32220;49.808;9.968;2023-04-28T02:31:32;98651.31;;;12.43;52.66
46506;BME280;32220;49.808;9.968;2023-04-28T02:34:01;98646.97;;;12.42;52.86
46506;BME280;32220;49.808;9.968;2023-04-28T02:36:29;98644.41;;;12.40;52.42
46506;BME280;32220;49.808;9.968;2023-04-28T02:38:57;98643.56;;;12.40;52.24
46506;BME280;32220;49.808;9.968;2023-04-28T02:41:26;98641.75;;;12.40;52.25
46506;BME280;32220;49.808;9.968;2023-04-28T02:43:56;98639.09;;;12.40;52.60
46506;BME280;32220;49.808;9.968;2023-04-28T02:46:23;98620.88;;;12.36;52.30
46506;BME280;32220;49.808;9.968;2023-04-28T02:48:51;98636.53;;;12.39;52.07
46506;BME280;32220;49.808;9.968;2023-04-28T02:51:20;98627.72;;;12.38;52.35
46506;BME280;32220;49.808;9.968;2023-04-28T02:53:48;98629.31;;;12.41;52.35
46506;BME280;32220;49.808;9.968;2023-04-28T02:56:16;98624.84;;;12.41;52.77
46506;BME280;32220;49.808;9.968;2023-04-28T02:58:44;98618.59;;;12.42;52.98
46506;BME280;32220;49.808;9.968;2023-04-28T03:01:12;98612.44;;;12.42;53.56
46506;BME280;32220;49.808;9.968;2023-04-28T03:03:40;98603.13;;;12.36;54.30
46506;BME280;32220;49.808;9.968;2023-04-28T03:06:08;98600.00;;;12.42;54.89
46506;BME280;32220;49.808;9.968;2023-04-28T03:08:37;98615.94;;;12.42;54.39
46506;BME280;32220;49.808;9.968;2023-04-28T03:11:05;98608.94;;;12.41;54.63
46506;BME280;32220;49.808;9.968;2023-04-28T03:13:33;98580.63;;;12.29;55.26
46506;BME280;32220;49.808;9.968;2023-04-28T03:16:03;98601.19;;;12.38;55.26
46506;BME280;32220;49.808;9.968;2023-04-28T03:18:31;98606.38;;;12.40;54.74
46506;BME280;32220;49.808;9.968;2023-04-28T03:20:59;98607.34;;;12.39;54.83
46506;BME280;32220;49.808;9.968;2023-04-28T03:23:27;98604.69;;;12.39;54.58
46506;BME280;32220;49.808;9.968;2023-04-28T03:25:57;98588.38;;;12.32;54.66
46506;BME280;32220;49.808;9.968;2023-04-28T03:28:25;98599.38;;;12.39;54.22
46506;BME280;32220;49.808;9.968;2023-04-28T03:30:54;98616.78;;;12.43;54.25
46506;BME280;32220;49.808;9.968;2023-04-28T03:33:22;98591.97;;;12.31;54.05
46506;BME280;32220;49.808;9.968;2023-04-28T03:35:52;98608.72;;;12.44;54.18
46506;BME280;32220;49.808;9.968;2023-04-28T03:38:20;98594.91;;;12.39;54.11
46506;BME280;32220;49.808;9.968;2023-04-28T03:40:49;98609.34;;;12.48;53.72
46506;BME280;32220;49.808;9.968;2023-04-28T03:43:36;98607.84;;;12.44;53.76
46506;BME280;32220;49.808;9.968;2023-04-28T03:46:26;98608.44;;;12.36;54.02
46506;BME280;32220;49.808;9.968;2023-04-28T03:48:54;98602.19;;;12.24;54.32
46506;BME280;32220;49.808;9.968;2023-04-28T03:51:22;98601.59;;;12.21;54.43
46506;BME280;32220;49.808;9.968;2023-04-28T03:53:50;98607.34;;;12.15;54.71
46506;BME280;32220;49.808;9.968;2023-04-28T03:56:18;98595.25;;;12.11;56.45
46506;BME280;32220;49.808;9.968;2023-04-28T03:58:47;98591.34;;;12.04;56.62
46506;BME280;32220;49.808;9.968;2023-04-28T04:01:16;98582.88;;;11.99;56.74
46506;BME280;32220;49.808;9.968;2023-04-28T04:03:44;98576.09;;;11.95;57.12
46506;BME280;32220;49.808;9.968;2023-04-28T04:06:12;98576.19;;;11.93;57.26
46506;BME280;32220;49.808;9.968;2023-04-28T04:08:41;98566.44;;;11.94;58.33
46506;BME280;32220;49.808;9.968;2023-04-28T04:11:10;98557.72;;;11.92;59.31
46506;BME280;32220;49.808;9.968;2023-04-28T04:13:37;98566.66;;;11.91;59.84
46506;BME280;32220;49.808;9.968;2023-04-28T04:16:10;98526.91;;;11.65;59.49
46506;BME280;32220;49.808;9.968;2023-04-28T04:18:41;98566.00;;;11.87;59.43
46506;BME280;32220;49.808;9.968;2023-04-28T04:21:17;98576.53;;;11.88;59.52
46506;BME280;32220;49.808;9.968;2023-04-28T04:23:47;98566.88;;;11.87;60.06
46506;BME280;32220;49.808;9.968;2023-04-28T04:26:14;98549.72;;;11.80;59.90
46506;BME280;32220;49.808;9.968;2023-04-28T04:28:42;98556.50;;;11.84;60.41
46506;BME280;32220;49.808;9.968;2023-04-28T04:31:14;98562.53;;;11.86;60.46
46506;BME280;32220;49.808;9.968;2023-04-28T04:33:43;98547.38;;;11.76;60.71
46506;BME280;32220;49.808;9.968;2023-04-28T04:36:11;98542.19;;;11.74;60.37
46506;BME280;32220;49.808;9.968;2023-04-28T04:38:39;98535.69;;;11.78;60.82
46506;BME280;32220;49.808;9.968;2023-04-28T04:41:14;98543.84;;;11.88;61.82
46506;BME280;32220;49.808;9.968;2023-04-28T04:43:42;98542.03;;;11.88;62.31
46506;BME280;32220;49.808;9.968;2023-04-28T04:46:12;98541.69;;;11.93;62.75
46506;BME280;32220;49.808;9.968;2023-04-28T04:48:39;98536.28;;;11.95;63.34
46506;BME280;32220;49.808;9.968;2023-04-28T04:51:07;98533.53;;;11.96;65.08
46506;BME280;32220;49.808;9.968;2023-04-28T04:53:35;98537.78;;;11.99;63.90
46506;BME280;32220;49.808;9.968;2023-04-28T04:56:04;98513.69;;;11.89;63.73
46506;BME280;32220;49.808;9.968;2023-04-28T04:58:34;98547.69;;;12.08;63.37
46506;BME280;32220;49.808;9.968;2023-04-28T05:01:29;98534.03;;;12.01;63.75
46506;BME280;32220;49.808;9.968;2023-04-28T05:03:58;98526.78;;;12.03;65.06
46506;BME280;32220;49.808;9.968;2023-04-28T05:06:26;98539.44;;;12.00;64.79
46506;BME280;32220;49.808;9.968;2023-04-28T05:08:53;98536.91;;;11.98;64.63
46506;BME280;32220;49.808;9.968;2023-04-28T05:11:24;98533.91;;;12.03;65.24
46506;BME280;32220;49.808;9.968;2023-04-28T05:13:52;98533.69;;;12.06;66.63
46506;BME280;32220;49.808;9.968;2023-04-28T05:16:20;98510.59;;;11.95;66.98
46506;BME280;32220;49.808;9.968;2023-04-28T05:19:16;98520.84;;;12.00;68.66
46506;BME280;32220;49.808;9.968;2023-04-28T05:21:43;98514.84;;;11.98;70.18
46506;BME280;32220;49.808;9.968;2023-04-28T05:24:12;98516.75;;;11.96;70.29
46506;BME280;32220;49.808;9.968;2023-04-28T05:26:40;98517.59;;;11.96;70.56
46506;BME280;32220;49.808;9.968;2023-04-28T05:29:09;98526.06;;;12.01;68.97
46506;BME280;32220;49.808;9.968;2023-04-28T05:31:38;98501.78;;;11.95;68.92
46506;BME280;32220;49.808;9.968;2023-04-28T05:34:06;98526.63;;;12.17;68.18
46506;BME280;32220;49.808;9.968;2023-04-28T05:36:35;98513.72;;;12.24;67.92
46506;BME280;32220;49.808;9.968;2023-04-28T05:39:06;98499.75;;;12.22;67.76
46506;BME280;32220;49.808;9.968;2023-04-28T05:41:34;98532.16;;;12.49;67.33
46506;BME280;32220;49.808;9.968;2023-04-28T05:44:03;98535.56;;;12.51;67.46
46506;BME280;32220;49.808;9.968;2023-04-28T05:46:31;98533.88;;;12.50;67.31
46506;BME280;32220;49.808;9.968;2023-04-28T05:49:00;98530.25;;;12.51;67.40
46506;BME280;32220;49.808;9.968;2023-04-28T05:51:36;98531.25;;;12.62;67.86
46506;BME280;32220;49.808;9.968;2023-04-28T05:54:04;98520.63;;;12.62;68.41
46506;BME280;32220;49.808;9.968;2023-04-28T05:56:38;98530.78;;;12.68;68.56
46506;BME280;32220;49.808;9.968;2023-04-28T05:59:07;98539.84;;;12.76;68.77
46506;BME280;32220;49.808;9.968;2023-04-28T06:01:36;98530.59;;;12.82;68.86
46506;BME280;32220;49.808;9.968;2023-04-28T06:04:04;98506.88;;;12.68;68.44
46506;BME280;32220;49.808;9.968;2023-04-28T06:06:32;98544.00;;;12.91;68.75
46506;BME280;32220;49.808;9.968;2023-04-28T06:09:02;98538.56;;;12.93;68.34
46506;BME280;32220;49.808;9.968;2023-04-28T06:11:32;98529.38;;;12.86;68.47
46506;BME280;32220;49.808;9.968;2023-04-28T06:14:00;98538.56;;;12.93;68.71
46506;BME280;32220;49.808;9.968;2023-04-28T06:16:28;98528.28;;;12.88;70.00
46506;BME280;32220;49.808;9.968;2023-04-28T06:18:56;98516.06;;;12.86;69.90
46506;BME280;32220;49.808;9.968;2023-04-28T06:21:24;98511.50;;;12.88;69.59
46506;BME280;32220;49.808;9.968;2023-04-28T06:23:54;98516.69;;;12.89;69.71
46506;BME280;32220;49.808;9.968;2023-04-28T06:26:23;98519.34;;;12.89;70.42
46506;BME280;32220;49.808;9.968;2023-04-28T06:28:51;98516.81;;;12.88;70.47
46506;BME280;32220;49.808;9.968;2023-04-28T06:31:19;98515.13;;;12.87;71.03
46506;BME280;32220;49.808;9.968;2023-04-28T06:33:47;98517.44;;;12.91;70.86
46506;BME280;32220;49.808;9.968;2023-04-28T06:36:14;98500.97;;;12.86;71.37
46506;BME280;32220;49.808;9.968;2023-04-28T06:38:43;98507.66;;;12.92;72.22
46506;BME280;32220;49.808;9.968;2023-04-28T06:41:11;98511.38;;;13.01;72.78
46506;BME280;32220;49.808;9.968;2023-04-28T06:43:43;98520.22;;;13.01;73.29
46506;BME280;32220;49.808;9.968;2023-04-28T06:46:19;98519.47;;;12.99;74.11
46506;BME280;32220;49.808;9.968;2023-04-28T06:48:47;98529.41;;;12.97;74.77
46506;BME280;32220;49.808;9.968;2023-04-28T06:51:16;98508.59;;;12.80;74.21
46506;BME280;32220;49.808;9.968;2023-04-28T06:53:44;98536.53;;;12.97;74.05
46506;BME280;32220;49.808;9.968;2023-04-28T06:56:12;98549.94;;;12.95;73.65
46506;BME280;32220;49.808;9.968;2023-04-28T06:58:40;98547.16;;;12.97;73.83
46506;BME280;32220;49.808;9.968;2023-04-28T07:01:09;98549.94;;;12.95;73.13
46506;BME280;32220;49.808;9.968;2023-04-28T07:03:37;98541.22;;;12.93;73.32
46506;BME280;32220;49.808;9.968;2023-04-28T07:06:08;98545.81;;;12.91;74.06
46506;BME280;32220;49.808;9.968;2023-04-28T07:08:36;98543.38;;;12.88;74.48
46506;BME280;32220;49.808;9.968;2023-04-28T07:11:04;98542.19;;;12.81;75.71
46506;BME280;32220;49.808;9.968;2023-04-28T07:13:35;98552.28;;;12.76;75.40
46506;BME280;32220;49.808;9.968;2023-04-28T07:16:03;98534.63;;;12.64;75.92
46506;BME280;32220;49.808;9.968;2023-04-28T07:18:34;98551.09;;;12.69;75.59
46506;BME280;32220;49.808;9.968;2023-04-28T07:21:02;98534.50;;;12.54;75.67
46506;BME280;32220;49.808;9.968;2023-04-28T07:23:30;98565.84;;;12.73;75.51
46506;BME280;32220;49.808;9.968;2023-04-28T07:25:58;98564.50;;;12.78;75.71
46506;BME280;32220;49.808;9.968;2023-04-28T07:28:26;98538.16;;;12.75;75.78
46506;BME280;32220;49.808;9.968;2023-04-28T07:30:54;98541.47;;;12.90;77.17
46506;BME280;32220;49.808;9.968;2023-04-28T07:33:22;98537.63;;;12.94;76.96
46506;BME280;32220;49.808;9.968;2023-04-28T07:35:54;98534.47;;;13.00;77.04
46506;BME280;32220;49.808;9.968;2023-04-28T07:38:22;98527.63;;;13.09;77.37
46506;BME280;32220;49.808;9.968;2023-04-28T07:40:50;98532.34;;;13.16;77.67
46506;BME280;32220;49.808;9.968;2023-04-28T07:43:17;98539.38;;;13.17;78.50
46506;BME280;32220;49.808;9.968;2023-04-28T07:45:45;98528.31;;;13.11;78.87
46506;BME280;32220;49.808;9.968;2023-04-28T07:48:14;98516.34;;;13.05;78.67
46506;BME280;32220;49.808;9.968;2023-04-28T07:50:42;98529.81;;;13.15;78.92
46506;BME280;32220;49.808;9.968;2023-04-28T07:53:12;98533.81;;;13.20;78.26
46506;BME280;32220;49.808;9.968;2023-04-28T07:55:40;98549.78;;;13.20;78.97
46506;BME280;32220;49.808;9.968;2023-04-28T07:58:09;98554.81;;;13.23;79.07
46506;BME280;32220;49.808;9.968;2023-04-28T08:00:37;98552.03;;;13.25;78.80
46506;BME280;32220;49.808;9.968;2023-04-28T08:03:05;98533.31;;;13.26;78.69
46506;BME280;32220;49.808;9.968;2023-04-28T08:05:32;98515.19;;;13.32;78.89
46506;BME280;32220;49.808;9.968;2023-04-28T08:08:00;98536.22;;;13.46;79.00
46506;BME280;32220;49.808;9.968;2023-04-28T08:10:30;98545.06;;;13.46;78.89
46506;BME280;32220;49.808;9.968;2023-04-28T08:12:58;98524.97;;;13.42;78.71
46506;BME280;32220;49.808;9.968;2023-04-28T08:15:26;98524.88;;;13.44;78.81
46506;BME280;32220;49.808;9.968;2023-04-28T08:17:53;98523.16;;;13.43;78.93
46506;BME280;32220;49.808;9.968;2023-04-28T08:20:21;98529.94;;;13.47;79.06
46506;BME280;32220;49.808;9.968;2023-04-28T08:22:49;98501.16;;;13.29;78.61
46506;BME280;32220;49.808;9.968;2023-04-28T08:25:17;98543.81;;;13.61;78.35
46506;BME280;32220;49.808;9.968;2023-04-28T08:27:47;98540.69;;;13.68;78.75
46506;BME280;32220;49.808;9.968;2023-04-28T08:30:15;98534.72;;;13.75;78.78
46506;BME280;32220;49.808;9.968;2023-04-28T08:32:42;98525.19;;;13.84;78.49
46506;BME280;32220;49.808;9.968;2023-04-28T08:35:11;98522.63;;;13.93;78.63
46506;BME280;32220;49.808;9.968;2023-04-28T08:37:40;98502.41;;;13.91;79.03
46506;BME280;32220;49.808;9.968;2023-04-28T08:40:09;98537.50;;;14.28;78.37
46506;BME280;32220;49.808;9.968;2023-04-28T08:42:37;98510.19;;;14.15;78.32
46506;BME280;32220;49.808;9.968;2023-04-28T08:45:11;98541.38;;;14.24;77.94
46506;BME280;32220;49.808;9.968;2023-04-28T08:47:40;98534.63;;;14.20;78.15
46506;BME280;32220;49.808;9.968;2023-04-28T08:50:12;98533.50;;;14.22;78.55
46506;BME280;32220;49.808;9.968;2023-04-28T08:52:41;98523.72;;;14.23;78.43
46506;BME280;32220;49.808;9.968;2023-04-28T08:55:11;98508.00;;;14.20;78.24
46506;BME280;32220;49.808;9.968;2023-04-28T08:57:43;98531.34;;;14.27;77.64
46506;BME280;32220;49.808;9.968;2023-04-28T09:00:13;98525.75;;;14.30;78.17
46506;BME280;32220;49.808;9.968;2023-04-28T09:02:41;98497.41;;;14.41;78.59
46506;BME280;32220;49.808;9.968;2023-04-28T09:05:10;98468.41;;;14.47;78.29
46506;BME280;32220;49.808;9.968;2023-04-28T09:07:38;98483.09;;;14.62;78.34
46506;BME280;32220;49.808;9.968;2023-04-28T09:10:17;98483.66;;;14.56;78.15
46506;BME280;32220;49.808;9.968;2023-04-28T09:15:32;98505.81;;;14.57;78.47
46506;BME280;32220;49.808;9.968;2023-04-28T09:18:02;98478.22;;;14.47;78.88
46506;BME280;32220;49.808;9.968;2023-04-28T09:20:31;98509.50;;;14.65;78.98
46506;BME280;32220;49.808;9.968;2023-04-28T09:23:14;98498.59;;;14.68;78.78
46506;BME280;32220;49.808;9.968;2023-04-28T09:25:57;98473.72;;;14.58;78.98
46506;BME280;32220;49.808;9.968;2023-04-28T09:28:25;98487.03;;;14.58;78.60
46506;BME280;32220;49.808;9.968;2023-04-28T09:30:55;98515.09;;;14.62;78.28
46506;BME280;32220;49.808;9.968;2023-04-28T09:33:23;98501.56;;;14.54;78.44
46506;BME280;32220;49.808;9.968;2023-04-28T09:36:24;98503.28;;;14.55;78.70
46506;BME280;32220;49.808;9.968;2023-04-28T09:38:56;98493.66;;;14.43;78.66
46506;BME280;32220;49.808;9.968;2023-04-28T09:41:34;98509.94;;;14.50;79.15
46506;BME280;32220;49.808;9.968;2023-04-28T09:44:13;98481.75;;;14.36;78.92
46506;BME280;32220;49.808;9.968;2023-04-28T09:46:45;98503.78;;;14.49;78.81
46506;BME280;32220;49.808;9.968;2023-04-28T09:49:24;98507.34;;;14.59;78.50
46506;BME280;32220;49.808;9.968;2023-04-28T09:52:11;98458.34;;;14.51;78.43
46506;BME280;32220;49.808;9.968;2023-04-28T09:54:42;98489.22;;;14.74;78.40
46506;BME280;32220;49.808;9.968;2023-04-28T09:57:10;98490.56;;;14.89;77.84
46506;BME280;32220;49.808;9.968;2023-04-28T09:59:37;98494.25;;;14.98;77.57
46506;BME280;32220;49.808;9.968;2023-04-28T10:02:07;98505.13;;;15.06;77.33
46506;BME280;32220;49.808;9.968;2023-04-28T10:04:35;98510.06;;;15.10;77.06
46506;BME280;32220;49.808;9.968;2023-04-28T10:07:03;98501.66;;;15.15;77.08
46506;BME280;32220;49.808;9.968;2023-04-28T10:09:31;98501.28;;;15.20;76.89
46506;BME280;32220;49.808;9.968;2023-04-28T10:12:01;98488.81;;;15.30;76.83
46506;BME280;32220;49.808;9.968;2023-04-28T10:14:30;98500.66;;;15.46;76.45
46506;BME280;32220;49.808;9.968;2023-04-28T10:16:58;98495.41;;;15.56;76.22
46506;BME280;32220;49.808;9.968;2023-04-28T10:19:29;98491.22;;;15.73;76.40
46506;BME280;32220;49.808;9.968;2023-04-28T10:22:28;98498.00;;;15.87;76.61
46506;BME280;32220;49.808;9.968;2023-04-28T10:25:11;98500.00;;;15.94;76.59
46506;BME280;32220;49.808;9.968;2023-04-28T10:27:45;98488.41;;;15.84;76.41
46506;BME280;32220;49.808;9.968;2023-04-28T10:30:14;98495.63;;;15.93;75.75
46506;BME280;32220;49.808;9.968;2023-04-28T10:32:43;98496.03;;;15.98;75.87
46506;BME280;32220;49.808;9.968;2023-04-28T10:35:43;98483.13;;;16.03;75.82
46506;BME280;32220;49.808;9.968;2023-04-28T10:38:13;98494.09;;;16.20;75.18
46506;BME280;32220;49.808;9.968;2023-04-28T10:40:41;98491.31;;;16.31;75.04
46506;BME280;32220;49.808;9.968;2023-04-28T10:43:10;98489.75;;;16.38;74.71
46506;BME280;32220;49.808;9.968;2023-04-28T10:46:11;98487.63;;;16.41;74.62
46506;BME280;32220;49.808;9.968;2023-04-28T10:48:53;98486.22;;;16.47;74.87
46506;BME280;32220;49.808;9.968;2023-04-28T10:51:29;98478.03;;;16.58;74.47
46506;BME280;32220;49.808;9.968;2023-04-28T10:54:22;98480.59;;;16.69;74.44
46506;BME280;32220;49.808;9.968;2023-04-28T10:57:18;98479.97;;;16.95;74.00
46506;BME280;32220;49.808;9.968;2023-04-28T10:59:47;98489.50;;;17.07;73.27
46506;BME280;32220;49.808;9.968;2023-04-28T11:02:37;98488.66;;;17.16;74.52
46506;BME280;32220;49.808;9.968;2023-04-28T11:05:10;98492.03;;;17.18;73.92
46506;BME280;32220;49.808;9.968;2023-04-28T11:07:39;98492.69;;;17.20;72.92
46506;BME280;32220;49.808;9.968;2023-04-28T11:10:07;98481.91;;;17.12;72.82
46506;BME280;32220;49.808;9.968;2023-04-28T11:12:35;98485.66;;;17.19;72.69
46506;BME280;32220;49.808;9.968;2023-04-28T11:15:11;98481.41;;;17.26;72.93
46506;BME280;32220;49.808;9.968;2023-04-28T11:17:40;98465.06;;;17.29;73.21
46506;BME280;32220;49.808;9.968;2023-04-28T11:20:11;98472.03;;;17.49;72.82
46506;BME280;32220;49.808;9.968;2023-04-28T11:22:41;98493.75;;;17.74;71.99
46506;BME280;32220;49.808;9.968;2023-04-28T11:25:08;98473.28;;;18.00;71.01
46506;BME280;32220;49.808;9.968;2023-04-28T11:27:36;98490.78;;;18.40;70.15
46506;BME280;32220;49.808;9.968;2023-04-28T11:30:18;98485.78;;;18.62;69.97
46506;BME280;32220;49.808;9.968;2023-04-28T11:32:48;98482.56;;;19.02;68.78
46506;BME280;32220;49.808;9.968;2023-04-28T11:35:17;98486.41;;;19.60;66.64
46506;BME280;32220;49.808;9.968;2023-04-28T11:38:00;98496.66;;;20.31;65.13
46506;BME280;32220;49.808;9.968;2023-04-28T11:40:29;98499.94;;;20.59;65.00
46506;BME280;32220;49.808;9.968;2023-04-28T11:42:57;98501.25;;;20.95;63.14
46506;BME280;32220;49.808;9.968;2023-04-28T11:45:26;98499.06;;;21.23;62.01
46506;BME280;32220;49.808;9.968;2023-04-28T11:47:54;98487.03;;;21.50;61.13
46506;BME280;32220;49.808;9.968;2023-04-28T11:50:34;98499.75;;;21.72;60.23
46506;BME280;32220;49.808;9.968;2023-04-28T11:53:03;98515.81;;;21.88;60.00
46506;BME280;32220;49.808;9.968;2023-04-28T11:55:31;98510.22;;;21.98;59.03
46506;BME280;32220;49.808;9.968;2023-04-28T11:58:16;98501.22;;;22.14;58.36
46506;BME280;32220;49.808;9.968;2023-04-28T12:00:43;98490.91;;;22.48;58.92
46506;BME280;32220;49.808;9.968;2023-04-28T12:03:11;98487.88;;;22.66;57.76
46506;BME280;32220;49.808;9.968;2023-04-28T12:05:43;98496.97;;;22.65;56.35
46506;BME280;32220;49.808;9.968;2023-04-28T12:08:13;98496.84;;;23.04;55.68
46506;BME280;32220;49.808;9.968;2023-04-28T12:10:40;98500.38;;;23.57;54.71
46506;BME280;32220;49.808;9.968;2023-04-28T12:13:14;98498.22;;;23.67;55.05
46506;BME280;32220;49.808;9.968;2023-04-28T12:15:42;98502.09;;;23.50;54.86
46506;BME280;32220;49.808;9.968;2023-04-28T12:18:10;98488.06;;;23.02;54.93
46506;BME280;32220;49.808;9.968;2023-04-28T12:20:38;98500.00;;;22.70;55.57
46506;BME280;32220;49.808;9.968;2023-04-28T12:23:06;98487.53;;;22.46;56.21
46506;BME280;32220;49.808;9.968;2023-04-28T12:25:43;98496.28;;;22.48;57.42
46506;BME280;32220;49.808;9.968;2023-04-28T12:28:12;98487.34;;;22.48;57.27
46506;BME280;32220;49.808;9.968;2023-04-28T12:30:40;98493.88;;;22.53;57.41
46506;BME280;32220;49.808;9.968;2023-04-28T12:33:21;98493.75;;;22.70;57.18
46506;BME280;32220;49.808;9.968;2023-04-28T12:35:50;98483.44;;;22.96;57.04
46506;BME280;32220;49.808;9.968;2023-04-28T12:38:19;98488.19;;;23.38;56.45
46506;BME280;32220;49.808;9.968;2023-04-28T12:40:49;98481.97;;;23.38;56.13
46506;BME280;32220;49.808;9.968;2023-04-28T12:43:16;98502.94;;;23.36;55.60
46506;BME280;32220;49.808;9.968;2023-04-28T12:45:48;98497.41;;;23.14;56.28
46506;BME280;32220;49.808;9.968;2023-04-28T12:48:16;98503.00;;;22.98;56.63
46506;BME280;32220;49.808;9.968;2023-04-28T12:50:44;98496.03;;;22.81;57.30
46506;BME280;32220;49.808;9.968;2023-04-28T12:53:15;98496.22;;;22.56;57.58
46506;BME280;32220;49.808;9.968;2023-04-28T12:55:42;98465.19;;;22.07;57.51
46506;BME280;32220;49.808;9.968;2023-04-28T12:58:11;98500.22;;;22.15;58.20
46506;BME280;32220;49.808;9.968;2023-04-28T13:00:39;98466.31;;;21.81;58.61
46506;BME280;32220;49.808;9.968;2023-04-28T13:03:06;98503.56;;;21.86;59.11
46506;BME280;32220;49.808;9.968;2023-04-28T13:05:34;98497.34;;;21.77;59.16
46506;BME280;32220;49.808;9.968;2023-04-28T13:08:02;98493.72;;;21.62;59.56
46506;BME280;32220;49.808;9.968;2023-04-28T13:10:30;98461.78;;;21.43;59.59
46506;BME280;32220;49.808;9.968;2023-04-28T13:12:58;98440.94;;;21.37;60.24
46506;BME280;32220;49.808;9.968;2023-04-28T13:15:27;98486.59;;;21.69;60.38
46506;BME280;32220;49.808;9.968;2023-04-28T13:17:55;98480.44;;;22.00;59.78
46506;BME280;32220;49.808;9.968;2023-04-28T13:20:24;98481.16;;;22.39;58.26
46506;BME280;32220;49.808;9.968;2023-04-28T13:22:52;98478.34;;;22.55;58.46